Time;durP1;ratioP1;P1;durP2;ratioP2;P2;SDS_P1;SDS_P2;PMS_P1;PMS_P2;Temp;Humidity;BMP_temperature;BMP_pressure;BME280_temperature;BME280_humidity;BME280_pressure;Samples;Min_cycle;Max_cycle;Signal;HPM_P1;HPM_P2
2022/08/23 00:01:25;;;;;;;17.70;2.78;;;17.80;99.90;;;;;;6280361;28;20299;-65
2022/08/23 00:04:36;;;;;;;6.82;2.30;;;17.80;99.90;;;;;;6263850;28;20277;-67
2022/08/23 00:07:44;;;;;;;17.05;4.20;;;17.80;99.90;;;;;;6262611;28;20304;-65
2022/08/23 00:10:50;;;;;;;14.35;3.00;;;17.70;99.90;;;;;;6263429;28;20320;-65
2022/08/23 00:13:56;;;;;;;32.65;4.07;;;17.70;99.90;;;;;;6262665;28;20280;-66
2022/08/23 00:17:04;;;;;;;24.10;3.58;;;17.70;99.90;;;;;;6262768;28;20307;-66
2022/08/23 00:20:15;;;;;;;12.45;2.60;;;17.70;99.90;;;;;;6263307;28;20271;-66
2022/08/23 00:23:20;;;;;;;15.95;2.78;;;17.70;99.90;;;;;;6262625;28;20300;-66
2022/08/23 00:26:26;;;;;;;10.68;2.85;;;17.70;99.90;;;;;;6262326;28;20291;-67
2022/08/23 00:29:36;;;;;;;10.55;3.10;;;17.80;99.90;;;;;;6262802;28;20285;-66
2022/08/23 00:32:44;;;;;;;13.20;2.28;;;17.70;99.90;;;;;;6262742;28;20299;-66
2022/08/23 00:35:50;;;;;;;19.55;3.38;;;17.70;99.90;;;;;;6262665;28;20277;-66
2022/08/23 00:38:56;;;;;;;23.05;3.38;;;17.70;99.90;;;;;;6261591;28;20271;-66
2022/08/23 00:47:38;;;;;;;16.80;3.63;;;17.60;99.90;;;;;;6261876;28;20299;-66
2022/08/23 00:49:11;;;;;;;19.98;2.85;;;17.60;99.90;;;;;;6236632;28;20301;-66
2022/08/23 00:52:22;;;;;;;12.20;3.20;;;17.60;99.90;;;;;;6249180;28;20300;-66
2022/08/23 00:55:28;;;;;;;8.25;2.90;;;17.50;99.90;;;;;;6261088;28;20263;-65
2022/08/23 00:58:34;;;;;;;26.40;3.15;;;17.50;99.90;;;;;;6261558;28;20307;-67
2022/08/23 01:01:41;;;;;;;20.38;3.75;;;17.40;99.90;;;;;;6271248;28;20306;-65
2022/08/23 01:04:55;;;;;;;10.20;2.85;;;17.40;99.90;;;;;;6286654;28;20272;-65
2022/08/23 01:08:01;;;;;;;21.95;3.70;;;17.50;99.90;;;;;;6286324;28;20464;-66
2022/08/23 01:11:11;;;;;;;27.50;3.03;;;17.50;99.90;;;;;;6285980;28;20275;-66
2022/08/23 01:14:21;;;;;;;26.13;3.17;;;17.50;99.90;;;;;;6285179;28;20271;-65
2022/08/23 01:17:31;;;;;;;27.00;4.18;;;17.50;99.90;;;;;;6286074;28;20306;-66
2022/08/23 01:20:41;;;;;;;21.65;3.08;;;17.40;99.90;;;;;;6285016;28;20267;-66
2022/08/23 01:23:51;;;;;;;26.05;3.97;;;17.40;99.90;;;;;;6286073;28;20590;-66
2022/08/23 01:26:57;;;;;;;41.65;4.82;;;17.40;99.90;;;;;;6285990;28;20485;-66
2022/08/23 01:30:05;;;;;;;30.67;3.58;;;17.40;99.90;;;;;;6284942;28;20290;-66
2022/08/23 01:33:15;;;;;;;38.95;4.18;;;17.40;99.90;;;;;;6284931;28;20475;-66
2022/08/23 01:36:21;;;;;;;46.65;4.72;;;17.40;99.90;;;;;;6284424;28;20291;-66
2022/08/23 01:39:31;;;;;;;38.92;4.03;;;17.40;99.90;;;;;;6285116;28;20275;-66
2022/08/23 01:42:40;;;;;;;27.52;3.42;;;17.40;99.90;;;;;;6284275;28;20295;-66
2022/08/23 01:45:47;;;;;;;30.30;3.72;;;17.40;99.90;;;;;;6286120;28;20351;-65
2022/08/23 01:48:54;;;;;;;33.15;3.35;;;17.40;99.90;;;;;;6284417;28;20547;-66
2022/08/23 01:52:00;;;;;;;27.10;3.47;;;17.40;99.90;;;;;;6283670;28;20294;-66
2022/08/23 01:55:08;;;;;;;21.80;3.53;;;17.40;99.90;;;;;;6269682;28;20265;-65
2022/08/23 01:58:16;;;;;;;46.08;4.38;;;17.40;99.90;;;;;;6260750;28;20619;-65
2022/08/23 02:01:22;;;;;;;29.75;3.20;;;17.40;99.90;;;;;;6259083;28;20291;-65
2022/08/23 02:04:32;;;;;;;25.02;3.60;;;17.50;99.90;;;;;;6259850;28;20276;-65
2022/08/23 02:07:37;;;;;;;36.08;3.72;;;17.40;99.90;;;;;;6258773;28;20303;-66
2022/08/23 02:10:47;;;;;;;30.45;3.92;;;17.40;99.90;;;;;;6259388;28;20455;-65
2022/08/23 02:13:56;;;;;;;18.35;3.72;;;17.50;99.90;;;;;;6283493;28;20274;-65
2022/08/23 02:17:06;;;;;;;14.13;3.05;;;17.40;99.90;;;;;;6267603;28;20295;-65
2022/08/23 02:20:13;;;;;;;20.13;3.47;;;17.40;99.90;;;;;;6285635;28;20275;-66
2022/08/23 02:23:20;;;;;;;29.42;3.88;;;17.40;99.90;;;;;;6266951;28;20311;-65
2022/08/23 02:26:27;;;;;;;20.98;3.22;;;17.40;99.90;;;;;;6283325;28;20291;-66
2022/08/23 02:29:36;;;;;;;16.92;3.00;;;17.40;99.90;;;;;;6284060;28;20481;-67
2022/08/23 02:32:46;;;;;;;15.07;3.03;;;17.40;99.90;;;;;;6284579;28;20299;-67
2022/08/23 02:35:52;;;;;;;16.08;3.08;;;17.30;99.90;;;;;;6284686;28;20271;-65
2022/08/23 02:38:58;;;;;;;18.98;3.35;;;17.40;99.90;;;;;;6283829;28;20272;-65
2022/08/23 02:42:06;;;;;;;14.57;3.13;;;17.40;99.90;;;;;;6283146;28;20303;-66
2022/08/23 02:45:18;;;;;;;20.88;3.08;;;17.40;99.90;;;;;;6267683;28;20279;-65
2022/08/23 02:48:24;;;;;;;24.13;3.22;;;17.40;99.90;;;;;;6266950;28;20294;-65
2022/08/23 02:51:41;;;;;;;21.50;2.55;;;17.40;99.90;;;;;;6283280;28;20291;-67
2022/08/23 02:54:46;;;;;;;7.93;2.28;;;17.40;99.90;;;;;;6271270;28;20264;-67
2022/08/23 02:57:53;;;;;;;14.00;2.72;;;17.50;99.90;;;;;;6258644;28;20296;-66
2022/08/23 03:01:00;;;;;;;14.07;2.55;;;17.50;99.90;;;;;;6243283;28;20586;-66
2022/08/23 03:04:08;;;;;;;14.95;2.72;;;17.40;99.90;;;;;;6245586;28;20300;-67
2022/08/23 03:07:14;;;;;;;5.85;2.75;;;17.40;99.90;;;;;;6248084;28;20259;-66
2022/08/23 03:10:20;;;;;;;14.63;2.40;;;17.40;99.90;;;;;;6243037;28;20305;-66
2022/08/23 03:13:32;;;;;;;19.98;2.97;;;17.40;99.90;;;;;;6222441;28;20297;-66
2022/08/23 03:16:39;;;;;;;15.05;2.72;;;17.40;99.90;;;;;;6240381;28;20272;-67
2022/08/23 03:19:45;;;;;;;8.10;2.65;;;17.40;99.90;;;;;;6239543;28;20304;-66
2022/08/23 03:22:50;;;;;;;13.63;2.50;;;17.40;99.90;;;;;;6251983;28;20598;-66
2022/08/23 03:26:04;;;;;;;8.32;2.40;;;17.40;99.90;;;;;;6264155;28;20271;-65
2022/08/23 03:29:13;;;;;;;11.50;2.90;;;17.40;99.90;;;;;;6262512;28;20240;-65
2022/08/23 03:32:39;;;;;;;7.55;2.63;;;17.40;99.90;;;;;;6264446;28;20272;-66
2022/08/23 03:35:57;;;;;;;7.28;2.40;;;17.40;99.90;;;;;;6262395;28;20279;-66
2022/08/23 03:39:05;;;;;;;8.35;2.35;;;17.40;99.90;;;;;;6262491;28;20476;-66
2022/08/23 03:42:11;;;;;;;4.88;2.30;;;17.40;99.90;;;;;;6246500;28;20271;-66
2022/08/23 03:45:19;;;;;;;15.02;2.50;;;17.40;99.90;;;;;;6246412;28;20299;-65
2022/08/23 03:48:26;;;;;;;21.48;2.90;;;17.40;99.90;;;;;;6263792;28;20291;-66
2022/08/23 03:51:33;;;;;;;14.77;2.78;;;17.40;99.90;;;;;;6279195;28;20291;-66
2022/08/23 03:54:39;;;;;;;9.55;2.58;;;17.30;99.90;;;;;;6278686;28;20611;-65
2022/08/23 03:57:47;;;;;;;6.15;2.45;;;17.30;99.90;;;;;;6262240;28;20467;-66
2022/08/23 04:00:57;;;;;;;7.55;2.47;;;17.40;99.90;;;;;;6246021;28;20575;-65
2022/08/23 04:04:03;;;;;;;4.32;2.40;;;17.40;99.90;;;;;;6272482;28;20293;-66
2022/08/23 04:07:12;;;;;;;6.53;1.92;;;17.40;99.90;;;;;;6286825;28;20276;-66
2022/08/23 04:10:18;;;;;;;7.20;2.60;;;17.40;99.90;;;;;;6270103;28;20299;-66
2022/08/23 04:13:29;;;;;;;5.57;2.15;;;17.40;99.90;;;;;;6254943;28;20303;-67
2022/08/23 04:16:41;;;;;;;6.45;2.65;;;17.40;99.90;;;;;;6262001;28;20275;-67
2022/08/23 04:19:48;;;;;;;6.90;2.28;;;17.40;99.90;;;;;;6261633;28;20295;-66
2022/08/23 04:22:55;;;;;;;7.57;2.70;;;17.40;99.90;;;;;;6261362;28;20275;-66
2022/08/23 04:26:05;;;;;;;5.57;2.30;;;17.40;99.90;;;;;;6261870;28;20640;-66
2022/08/23 04:29:16;;;;;;;6.93;2.78;;;17.40;99.90;;;;;;6244854;28;20299;-67
2022/08/23 04:32:40;;;;;;;3.60;2.40;;;17.50;99.90;;;;;;6261538;28;20280;-66
2022/08/23 04:35:48;;;;;;;9.63;2.53;;;17.50;99.90;;;;;;6260658;28;20279;-66
2022/08/23 04:38:56;;;;;;;6.63;2.25;;;17.50;99.90;;;;;;6261056;28;20379;-66
2022/08/23 04:42:19;;;;;;;16.73;3.22;;;17.60;99.90;;;;;;6261360;28;20275;-66
2022/08/23 04:45:28;;;;;;;11.02;3.22;;;17.60;99.90;;;;;;6261025;28;20300;-66
2022/08/23 04:48:35;;;;;;;14.77;3.38;;;17.70;99.90;;;;;;6260636;28;20291;-66
2022/08/23 04:51:41;;;;;;;7.68;2.80;;;17.70;99.90;;;;;;6261155;28;20590;-68
2022/08/23 04:54:58;;;;;;;11.98;3.10;;;17.70;99.90;;;;;;6260278;28;20315;-67
2022/08/23 04:58:29;;;;;;;6.32;2.47;;;17.80;99.90;;;;;;6253246;28;20288;-67
2022/08/23 05:01:35;;;;;;;4.78;2.20;;;17.80;99.90;;;;;;6251764;28;20300;-66
2022/08/23 05:04:43;;;;;;;7.25;2.40;;;17.80;99.90;;;;;;6235835;28;20291;-68
2022/08/23 05:07:48;;;;;;;4.90;2.33;;;17.80;99.90;;;;;;6235712;28;20272;-66
2022/08/23 05:10:54;;;;;;;3.25;2.50;;;17.80;99.90;;;;;;6240673;28;20301;-66
2022/08/23 05:14:00;;;;;;;3.63;2.47;;;17.90;99.90;;;;;;6250002;28;20292;-67
2022/08/23 05:17:07;;;;;;;9.18;2.47;;;17.90;99.90;;;;;;6219702;28;20268;-67
2022/08/23 05:20:16;;;;;;;5.32;2.90;;;17.90;99.90;;;;;;6239676;28;20303;-68
2022/08/23 05:23:22;;;;;;;8.27;2.50;;;17.90;99.90;;;;;;6251011;28;20295;-67
2022/08/23 05:26:48;;;;;;;10.27;2.50;;;18.00;99.90;;;;;;6260389;28;20276;-66
2022/08/23 05:29:54;;;;;;;4.38;2.25;;;18.00;99.90;;;;;;6243505;28;20291;-66
2022/08/23 05:32:59;;;;;;;3.85;2.70;;;18.10;99.90;;;;;;6242926;28;20295;-66
2022/08/23 05:36:11;;;;;;;4.32;2.65;;;18.10;99.90;;;;;;6260382;28;20276;-67
2022/08/23 05:39:17;;;;;;;4.35;2.55;;;18.10;99.90;;;;;;6275762;28;20295;-67
2022/08/23 05:42:43;;;;;;;4.53;2.17;;;18.20;99.90;;;;;;6244080;28;20276;-67
2022/08/23 05:45:49;;;;;;;5.65;2.67;;;18.20;99.90;;;;;;6218243;28;20572;-67
2022/08/23 05:48:54;;;;;;;6.45;2.50;;;18.20;99.90;;;;;;6227802;28;20291;-67
2022/08/23 05:52:03;;;;;;;7.78;2.67;;;18.20;99.90;;;;;;6259120;28;20584;-65
2022/08/23 05:55:11;;;;;;;9.20;2.75;;;18.10;99.90;;;;;;6242888;28;20545;-66
2022/08/23 05:58:19;;;;;;;4.43;2.30;;;18.20;99.90;;;;;;6260502;28;20299;-66
2022/08/23 06:01:25;;;;;;;6.15;2.72;;;18.30;99.90;;;;;;6243578;28;20611;-66
2022/08/23 06:04:34;;;;;;;6.07;2.65;;;18.40;99.90;;;;;;6242791;28;20304;-67
2022/08/23 06:07:41;;;;;;;6.30;2.65;;;18.40;99.90;;;;;;6259373;28;20271;-67
2022/08/23 06:10:47;;;;;;;3.75;2.20;;;18.60;99.90;;;;;;6234730;28;20289;-66
2022/08/23 06:14:08;;;;;;;4.95;2.17;;;18.60;99.90;;;;;;6217956;28;20300;-67
2022/08/23 06:17:14;;;;;;;10.02;2.35;;;18.60;99.90;;;;;;6234419;28;20272;-67
2022/08/23 06:20:19;;;;;;;3.78;2.33;;;18.60;99.90;;;;;;6233931;28;20292;-67
2022/08/23 06:23:45;;;;;;;6.25;2.30;;;18.70;99.90;;;;;;6217631;28;20304;-67
2022/08/23 06:26:51;;;;;;;5.60;2.15;;;18.80;99.90;;;;;;6234565;28;20272;-67
2022/08/23 06:29:57;;;;;;;3.47;2.17;;;18.80;99.90;;;;;;6233774;28;20296;-67
2022/08/23 06:33:13;;;;;;;5.10;1.98;;;18.90;99.90;;;;;;6235234;28;20296;-68
2022/08/23 06:36:37;;;;;;;6.40;2.17;;;18.90;99.90;;;;;;6239642;28;20273;-67
2022/08/23 06:39:53;;;;;;;7.50;2.50;;;18.90;99.90;;;;;;6255896;28;20307;-67
2022/08/23 06:43:19;;;;;;;8.02;2.65;;;19.00;99.90;;;;;;6246798;28;20290;-68
2022/08/23 06:46:38;;;;;;;10.23;2.33;;;19.00;99.90;;;;;;6263852;28;20272;-67
2022/08/23 06:49:45;;;;;;;5.32;2.50;;;19.00;99.90;;;;;;6264749;28;20296;-67
2022/08/23 06:53:22;;;;;;;5.70;2.78;;;19.10;99.90;;;;;;6264723;28;20295;-67
2022/08/23 06:56:54;;;;;;;5.38;2.50;;;19.10;99.90;;;;;;6263889;28;20272;-66
2022/08/23 07:00:13;;;;;;;6.68;1.92;;;19.10;99.90;;;;;;6263244;28;20296;-66
2022/08/23 07:03:42;;;;;;;4.75;2.25;;;19.20;99.90;;;;;;6271193;28;20294;-66
2022/08/23 07:07:07;;;;;;;6.55;1.85;;;19.30;99.90;;;;;;6289597;28;20268;-66
2022/08/23 07:10:16;;;;;;;7.25;2.53;;;19.40;99.90;;;;;;6287543;28;20483;-66
2022/08/23 07:13:23;;;;;;;7.80;1.80;;;19.50;99.90;;;;;;6287118;28;20298;-66
2022/08/23 07:16:33;;;;;;;3.20;1.52;;;19.60;99.90;;;;;;6288399;28;20312;-67
2022/08/23 07:19:42;;;;;;;6.22;2.00;;;19.60;99.90;;;;;;6287679;28;20291;-66
2022/08/23 07:22:48;;;;;;;6.70;1.85;;;19.80;99.90;;;;;;6286800;28;20271;-67
2022/08/23 07:25:54;;;;;;;2.38;1.90;;;19.80;99.90;;;;;;6287960;28;20451;-67
2022/08/23 07:29:05;;;;;;;4.03;1.73;;;19.90;99.90;;;;;;6270441;28;20335;-66
2022/08/23 07:32:12;;;;;;;3.65;1.80;;;19.90;99.90;;;;;;6287882;28;20290;-67
2022/08/23 07:35:18;;;;;;;5.97;1.73;;;19.90;99.90;;;;;;6288507;28;20294;-67
2022/08/23 07:38:28;;;;;;;9.13;2.13;;;20.00;99.90;;;;;;6263645;28;20299;-67
2022/08/23 07:41:37;;;;;;;5.57;1.90;;;20.00;99.90;;;;;;6271177;28;20270;-67
2022/08/23 07:44:45;;;;;;;4.93;1.70;;;20.00;99.90;;;;;;6287140;28;20294;-67
2022/08/23 07:47:53;;;;;;;3.92;2.25;;;20.20;99.90;;;;;;6287320;28;20276;-67
2022/08/23 07:51:05;;;;;;;5.43;1.80;;;20.20;99.90;;;;;;6287652;28;20271;-66
2022/08/23 07:54:12;;;;;;;3.17;1.67;;;20.20;99.90;;;;;;6286395;28;20298;-67
2022/08/23 07:57:35;;;;;;;4.88;1.85;;;20.10;99.90;;;;;;6287166;28;20271;-66
2022/08/23 08:01:15;;;;;;;5.75;1.70;;;20.20;99.90;;;;;;6279398;28;20295;-67
2022/08/23 08:04:25;;;;;;;3.15;1.70;;;20.30;99.90;;;;;;6255923;28;20297;-67
2022/08/23 08:07:32;;;;;;;3.03;1.60;;;20.40;99.90;;;;;;6246007;28;20275;-67
2022/08/23 08:10:43;;;;;;;1.65;1.55;;;20.40;99.90;;;;;;6262108;28;20292;-66
2022/08/23 08:13:50;;;;;;;5.65;1.98;;;20.50;99.90;;;;;;6282045;28;20312;-67
2022/08/23 08:16:59;;;;;;;5.25;1.60;;;20.50;99.90;;;;;;6286130;28;20275;-68
2022/08/23 08:20:35;;;;;;;2.42;1.58;;;20.50;99.90;;;;;;6216224;28;20298;-66
2022/08/23 08:24:00;;;;;;;4.93;1.58;;;20.60;99.90;;;;;;6287225;28;20299;-67
2022/08/23 08:27:28;;;;;;;6.43;1.52;;;20.60;99.90;;;;;;6286097;28;20270;-66
2022/08/23 08:30:37;;;;;;;3.58;1.92;;;20.70;99.90;;;;;;6285676;28;20406;-66
2022/08/23 08:33:44;;;;;;;4.80;3.20;;;20.80;99.90;;;;;;6285871;28;20295;-67
2022/08/23 08:36:54;;;;;;;4.97;2.15;;;20.80;99.90;;;;;;6286250;28;20267;-67
2022/08/23 08:40:04;;;;;;;3.03;1.95;;;21.00;99.90;;;;;;6269228;28;20483;-67
2022/08/23 08:43:27;;;;;;;2.67;1.40;;;21.00;99.90;;;;;;6268987;28;20465;-66
2022/08/23 08:46:41;;;;;;;1.23;1.10;;;21.00;99.90;;;;;;6269545;28;20275;-66
2022/08/23 08:49:56;;;;;;;1.73;1.60;;;21.00;99.90;;;;;;6285535;28;20294;-67
2022/08/23 08:53:04;;;;;;;1.73;1.70;;;21.00;99.90;;;;;;6301436;28;20450;-66
2022/08/23 08:56:32;;;;;;;1.50;1.23;;;21.00;99.90;;;;;;6286561;28;20271;-66
2022/08/23 08:59:52;;;;;;;1.17;1.10;;;21.00;99.90;;;;;;6284792;28;20295;-67
2022/08/23 09:03:01;;;;;;;1.42;1.33;;;21.10;99.90;;;;;;6267813;28;20302;-67
2022/08/23 09:06:25;;;;;;;1.90;1.70;;;21.10;99.90;;;;;;6269094;28;20516;-67
2022/08/23 09:09:59;;;;;;;5.40;1.50;;;21.00;99.90;;;;;;6268247;28;20605;-67
2022/08/23 09:13:30;;;;;;;1.48;1.30;;;21.00;99.90;;;;;;6268419;28;20262;-67
2022/08/23 09:16:49;;;;;;;6.20;1.63;;;21.00;99.90;;;;;;6285285;28;20271;-67
2022/08/23 09:20:00;;;;;;;1.63;1.52;;;21.00;99.90;;;;;;6268256;28;20295;-67
2022/08/23 09:23:11;;;;;;;1.88;1.77;;;21.00;99.90;;;;;;6268188;28;20310;-67
2022/08/23 09:26:26;;;;;;;3.53;2.50;;;21.00;99.90;;;;;;6284698;28;20271;-67
2022/08/23 09:29:35;;;;;;;1.85;1.60;;;21.00;99.90;;;;;;6267849;28;20295;-68
2022/08/23 09:32:44;;;;;;;6.03;1.70;;;21.00;99.90;;;;;;6268021;28;20279;-67
2022/08/23 09:36:16;;;;;;;2.58;1.63;;;21.00;99.90;;;;;;6283913;28;20465;-66
2022/08/23 09:39:30;;;;;;;2.47;1.25;;;21.10;99.90;;;;;;6267036;28;20295;-66
2022/08/23 09:42:42;;;;;;;2.70;1.98;;;21.10;99.90;;;;;;6267977;28;20571;-66
2022/08/23 09:45:59;;;;;;;3.97;1.48;;;21.20;99.90;;;;;;6267196;28;20279;-68
2022/08/23 09:49:28;;;;;;;2.45;2.25;;;21.40;99.90;;;;;;6255829;28;20295;-66
2022/08/23 09:52:49;;;;;;;2.50;2.30;;;21.50;99.90;;;;;;6242622;28;20267;-67
2022/08/23 09:55:58;;;;;;;2.15;2.00;;;21.40;99.90;;;;;;6243544;28;20291;-66
2022/08/23 09:59:18;;;;;;;5.65;2.15;;;21.40;99.50;;;;;;6242861;28;20295;-67
2022/08/23 10:02:35;;;;;;;2.17;1.50;;;21.50;99.70;;;;;;6242868;28;20490;-68
2022/08/23 10:05:57;;;;;;;3.13;1.60;;;21.60;99.50;;;;;;6266959;28;20567;-67
2022/08/23 10:09:09;;;;;;;1.95;1.45;;;21.60;99.40;;;;;;6283449;28;20295;-67
2022/08/23 10:12:19;;;;;;;3.65;3.45;;;21.80;98.60;;;;;;6283982;28;20267;-67
2022/08/23 10:15:42;;;;;;;2.75;2.53;;;21.70;98.60;;;;;;6267019;28;20303;-67
2022/08/23 10:18:56;;;;;;;1.75;1.55;;;21.70;98.00;;;;;;6282760;28;20316;-68
2022/08/23 10:22:10;;;;;;;1.42;1.30;;;21.70;98.40;;;;;;6283869;28;20271;-67
2022/08/23 10:25:32;;;;;;;2.22;1.52;;;21.80;98.60;;;;;;6266937;28;20300;-67
2022/08/23 10:32:28;;;;;;;1.40;1.30;;;21.90;96.10;;;;;;6267500;28;20271;-66
2022/08/23 10:35:43;;;;;;;2.15;1.40;;;21.90;96.00;;;;;;6283374;28;20303;-66
2022/08/23 10:38:56;;;;;;;2.45;2.25;;;22.00;96.10;;;;;;6284450;28;20400;-66
2022/08/23 10:42:06;;;;;;;3.03;1.60;;;22.00;96.20;;;;;;6283865;28;20271;-66
2022/08/23 10:45:25;;;;;;;1.25;1.25;;;21.90;95.30;;;;;;6283351;28;20314;-67
2022/08/23 10:48:36;;;;;;;1.85;1.73;;;22.00;95.90;;;;;;6282649;28;20295;-67
2022/08/23 10:51:46;;;;;;;2.20;1.30;;;22.00;95.00;;;;;;6267171;28;20267;-68
2022/08/23 10:55:05;;;;;;;3.17;1.40;;;22.10;94.90;;;;;;6282946;28;20298;-67
2022/08/23 10:58:20;;;;;;;1.63;1.48;;;22.00;94.90;;;;;;6283399;28;20296;-67
2022/08/23 11:01:34;;;;;;;1.30;1.20;;;22.00;95.40;;;;;;6283811;28;20539;-66
2022/08/23 11:04:57;;;;;;;3.05;2.17;;;22.10;95.80;;;;;;6284118;28;20298;-67
2022/08/23 11:08:09;;;;;;;1.35;1.25;;;22.20;95.70;;;;;;6282787;28;20579;-67
2022/08/23 11:11:48;;;;;;;3.42;1.83;;;22.20;94.50;;;;;;6266956;28;20551;-65
2022/08/23 11:15:37;;;;;;;2.20;2.00;;;22.20;93.90;;;;;;6259415;28;20300;-67
2022/08/23 11:18:52;;;;;;;1.63;1.63;;;22.10;93.80;;;;;;6258385;28;20311;-68
2022/08/23 11:22:16;;;;;;;2.65;1.92;;;22.20;94.70;;;;;;6259704;28;20457;-67
2022/08/23 11:25:42;;;;;;;1.77;1.67;;;22.30;94.50;;;;;;6283546;28;20302;-67
2022/08/23 11:28:49;;;;;;;1.67;1.55;;;22.20;93.60;;;;;;6262464;28;20382;-67
2022/08/23 11:32:02;;;;;;;1.27;1.20;;;22.10;93.60;;;;;;6263104;28;20275;-67
2022/08/23 11:35:31;;;;;;;2.17;1.10;;;22.10;94.20;;;;;;6262572;28;20304;-66
2022/08/23 11:39:08;;;;;;;2.58;1.10;;;22.10;94.40;;;;;;6252882;28;20303;-67
2022/08/23 11:42:19;;;;;;;1.83;1.20;;;22.20;93.60;;;;;;6270977;28;20291;-67
2022/08/23 11:45:38;;;;;;;1.52;1.20;;;22.20;94.20;;;;;;6270510;28;20300;-67
2022/08/23 11:48:48;;;;;;;3.83;1.40;;;22.20;94.10;;;;;;6287000;28;20311;-66
2022/08/23 11:52:07;;;;;;;4.22;1.30;;;22.10;93.70;;;;;;6288670;28;20271;-66
2022/08/23 11:55:31;;;;;;;2.45;1.35;;;22.00;94.40;;;;;;6287971;28;20302;-66
2022/08/23 11:59:04;;;;;;;1.38;1.27;;;22.00;94.20;;;;;;6288026;28;20291;-66
2022/08/23 12:02:49;;;;;;;3.25;1.20;;;21.90;93.90;;;;;;6287671;28;20307;-67
2022/08/23 12:06:30;;;;;;;1.50;1.10;;;21.90;94.30;;;;;;6287800;28;20562;-66
2022/08/23 12:09:56;;;;;;;2.03;1.00;;;21.90;92.90;;;;;;6287752;28;20295;-67
2022/08/23 12:13:31;;;;;;;1.75;1.15;;;21.90;92.50;;;;;;6287260;28;20267;-66
2022/08/23 12:16:39;;;;;;;2.83;2.40;;;22.00;92.10;;;;;;6288028;28;20295;-66
2022/08/23 12:19:57;;;;;;;4.22;1.35;;;22.20;92.90;;;;;;6287342;28;20459;-66
2022/08/23 12:23:15;;;;;;;1.10;1.10;;;22.20;92.90;;;;;;6287559;28;20271;-66
2022/08/23 12:26:28;;;;;;;2.65;1.10;;;22.20;93.00;;;;;;6279925;28;20271;-66
2022/08/23 12:29:58;;;;;;;1.15;1.10;;;22.10;93.70;;;;;;6286849;28;20299;-66
2022/08/23 12:33:11;;;;;;;1.02;1.02;;;22.10;93.60;;;;;;6286408;28;20367;-67
2022/08/23 12:36:21;;;;;;;2.08;1.98;;;22.10;94.70;;;;;;6287346;28;20290;-67
2022/08/23 12:39:33;;;;;;;2.78;1.88;;;22.10;93.30;;;;;;6287021;28;20311;-67
2022/08/23 12:42:40;;;;;;;3.15;1.20;;;22.10;93.30;;;;;;6286856;28;20279;-66
2022/08/23 12:45:49;;;;;;;1.88;1.20;;;22.10;93.60;;;;;;6286937;28;20505;-66
2022/08/23 12:48:55;;;;;;;1.33;1.30;;;22.10;93.20;;;;;;6286401;28;20311;-67
2022/08/23 12:52:05;;;;;;;1.63;1.60;;;21.90;93.50;;;;;;6286904;28;20271;-67
2022/08/23 12:55:15;;;;;;;1.20;1.20;;;21.70;93.60;;;;;;6286321;28;20294;-68
2022/08/23 12:58:29;;;;;;;1.25;1.17;;;21.70;94.20;;;;;;6286302;28;20295;-66
2022/08/23 13:01:38;;;;;;;2.38;1.30;;;21.80;93.50;;;;;;6286604;28;20299;-66
2022/08/23 13:04:44;;;;;;;1.13;1.02;;;21.60;92.90;;;;;;6286314;28;20291;-67
2022/08/23 13:07:50;;;;;;;1.00;1.00;;;21.60;92.70;;;;;;6285779;28;20294;-66
2022/08/23 13:10:55;;;;;;;1.35;1.30;;;21.60;92.60;;;;;;6286156;28;20263;-67
2022/08/23 13:14:23;;;;;;;1.10;1.10;;;21.70;92.90;;;;;;6286215;28;20290;-68
2022/08/23 13:17:38;;;;;;;1.30;1.20;;;21.60;92.20;;;;;;6286176;28;20291;-67
2022/08/23 13:20:43;;;;;;;1.10;1.10;;;21.60;91.80;;;;;;6285814;28;20295;-66
2022/08/23 13:23:50;;;;;;;1.10;0.90;;;21.50;92.00;;;;;;6285969;28;20291;-66
2022/08/23 13:27:13;;;;;;;1.17;1.15;;;21.60;91.90;;;;;;6285821;28;20271;-66
2022/08/23 13:30:24;;;;;;;1.05;1.05;;;21.50;93.50;;;;;;6285898;28;20298;-66
2022/08/23 13:33:30;;;;;;;1.15;1.15;;;21.60;93.20;;;;;;6285650;28;20299;-67
2022/08/23 13:36:35;;;;;;;12.13;9.20;;;21.50;91.80;;;;;;6285867;28;20319;-66
2022/08/23 13:39:46;;;;;;;2.22;2.05;;;21.60;92.60;;;;;;6285202;28;20294;-66
2022/08/23 13:42:57;;;;;;;4.60;1.30;;;21.70;91.70;;;;;;6285080;28;20283;-67
2022/08/23 13:46:16;;;;;;;4.75;1.20;;;21.80;91.20;;;;;;6285124;28;20268;-67
2022/08/23 13:49:29;;;;;;;1.20;1.20;;;21.70;91.50;;;;;;6285298;28;20291;-67
2022/08/23 13:52:35;;;;;;;1.15;1.15;;;21.70;91.60;;;;;;6285305;28;20270;-66
2022/08/23 13:56:01;;;;;;;1.50;1.10;;;21.60;91.20;;;;;;6284723;28;20275;-67
2022/08/23 13:59:25;;;;;;;3.42;1.30;;;21.60;91.50;;;;;;6285113;28;20314;-66
2022/08/23 14:02:38;;;;;;;3.92;1.17;;;21.50;91.70;;;;;;6285598;28;20449;-66
2022/08/23 14:05:45;;;;;;;1.20;1.08;;;21.50;92.00;;;;;;6284941;28;20306;-66
2022/08/23 14:08:50;;;;;;;1.25;1.08;;;21.50;92.90;;;;;;6284920;28;20439;-66
2022/08/23 14:11:59;;;;;;;1.10;1.10;;;21.50;91.30;;;;;;6285113;28;20262;-66
2022/08/23 14:15:09;;;;;;;0.90;0.90;;;21.50;92.20;;;;;;6284899;28;20298;-66
2022/08/23 14:18:16;;;;;;;1.48;1.00;;;21.50;91.10;;;;;;6284423;28;20299;-67
2022/08/23 14:21:21;;;;;;;1.27;1.13;;;21.40;91.30;;;;;;6277205;28;20267;-65
2022/08/23 14:24:27;;;;;;;0.93;0.93;;;21.40;91.90;;;;;;6284708;28;20290;-66
2022/08/23 14:27:33;;;;;;;2.28;0.85;;;21.40;91.50;;;;;;6284971;28;20274;-66
2022/08/23 14:30:38;;;;;;;1.27;1.27;;;21.50;91.40;;;;;;6284405;28;20291;-65
2022/08/23 14:33:45;;;;;;;1.58;1.40;;;21.50;91.30;;;;;;6284275;28;20299;-67
2022/08/23 14:36:52;;;;;;;2.40;1.30;;;21.50;92.40;;;;;;6284810;28;20267;-67
2022/08/23 14:40:18;;;;;;;2.60;1.20;;;21.40;92.50;;;;;;6284457;28;20298;-66
2022/08/23 14:43:26;;;;;;;1.27;1.17;;;21.40;92.90;;;;;;6277121;28;20291;-67
2022/08/23 14:46:31;;;;;;;1.00;1.00;;;21.40;92.70;;;;;;6284823;28;20267;-66
2022/08/23 14:49:40;;;;;;;1.30;1.30;;;21.40;93.30;;;;;;6284586;28;20298;-66
2022/08/23 14:52:47;;;;;;;1.20;1.20;;;21.50;93.60;;;;;;6285055;28;20272;-66
2022/08/23 14:55:53;;;;;;;1.38;1.38;;;21.40;93.90;;;;;;6284575;28;20549;-66
2022/08/23 14:59:18;;;;;;;1.20;1.20;;;21.40;93.70;;;;;;6288984;28;20304;-66
2022/08/23 15:02:26;;;;;;;1.45;1.45;;;21.40;94.20;;;;;;6289225;28;20350;-67
2022/08/23 15:05:33;;;;;;;2.40;2.20;;;21.40;93.70;;;;;;6288799;28;20290;-67
2022/08/23 15:08:40;;;;;;;2.50;2.28;;;21.30;94.10;;;;;;6289261;28;20306;-67
2022/08/23 15:11:46;;;;;;;6.22;5.63;;;21.30;94.10;;;;;;6281615;28;20279;-66
2022/08/23 15:15:15;;;;;;;4.97;4.20;;;21.40;94.20;;;;;;6288691;28;20294;-66
2022/08/23 15:18:26;;;;;;;3.72;2.70;;;21.30;94.80;;;;;;6288529;28;20367;-67
2022/08/23 15:21:33;;;;;;;1.30;1.30;;;21.30;94.80;;;;;;6288892;28;20558;-67
2022/08/23 15:24:39;;;;;;;1.38;1.38;;;21.30;95.00;;;;;;6288512;28;20391;-67
2022/08/23 15:27:46;;;;;;;1.75;1.50;;;21.30;95.10;;;;;;6288935;28;20275;-66
2022/08/23 15:30:52;;;;;;;2.40;1.20;;;21.20;95.80;;;;;;6287606;28;20275;-67
2022/08/23 15:33:58;;;;;;;2.28;2.28;;;21.20;96.30;;;;;;6288638;28;20535;-68
2022/08/23 15:37:04;;;;;;;2.22;1.67;;;21.20;95.60;;;;;;6289180;28;20270;-68
2022/08/23 15:40:12;;;;;;;3.35;1.45;;;21.20;95.90;;;;;;6288777;28;20294;-67
2022/08/23 15:43:17;;;;;;;1.90;1.80;;;21.00;96.50;;;;;;6288433;28;20291;-67
2022/08/23 15:46:24;;;;;;;2.60;2.50;;;21.10;96.60;;;;;;6288380;28;20271;-66
2022/08/23 15:49:32;;;;;;;5.38;3.08;;;21.10;96.10;;;;;;6287841;28;20461;-67
2022/08/23 15:52:42;;;;;;;1.92;1.83;;;21.10;96.80;;;;;;6288250;28;20271;-67
2022/08/23 15:55:48;;;;;;;1.52;1.52;;;21.00;97.20;;;;;;6263033;28;20275;-67
2022/08/23 15:58:54;;;;;;;2.40;2.20;;;21.00;97.40;;;;;;6262872;28;20307;-67
2022/08/23 16:01:59;;;;;;;2.53;2.10;;;21.00;99.50;;;;;;6263411;28;20304;-67
2022/08/23 16:05:07;;;;;;;3.22;2.10;;;21.00;98.00;;;;;;6261447;28;20291;-66
2022/08/23 16:08:20;;;;;;;2.97;2.00;;;21.00;99.50;;;;;;6262225;28;20292;-67
2022/08/23 16:11:25;;;;;;;3.97;2.00;;;21.00;99.90;;;;;;6280705;28;20264;-66
2022/08/23 16:14:31;;;;;;;1.77;1.77;;;20.90;99.90;;;;;;6287682;28;20299;-67
2022/08/23 16:17:37;;;;;;;2.55;1.85;;;20.90;99.90;;;;;;6286810;28;20267;-66
2022/08/23 16:20:44;;;;;;;2.47;2.28;;;20.90;99.90;;;;;;6287138;28;20291;-66
2022/08/23 16:23:50;;;;;;;3.05;1.80;;;20.80;99.90;;;;;;6287697;28;20599;-67
2022/08/23 16:26:56;;;;;;;1.80;1.70;;;20.80;99.90;;;;;;6287890;28;20271;-67
2022/08/23 16:30:01;;;;;;;2.22;1.83;;;20.70;99.90;;;;;;6287118;28;20318;-69
2022/08/23 16:33:08;;;;;;;9.60;3.53;;;20.70;99.90;;;;;;6287110;28;20326;-67
2022/08/23 16:36:16;;;;;;;2.50;2.20;;;20.60;99.90;;;;;;6287253;28;20275;-66
2022/08/23 16:39:23;;;;;;;2.72;2.50;;;20.70;99.90;;;;;;6287049;28;20303;-66
2022/08/23 16:42:28;;;;;;;2.30;1.95;;;20.70;99.90;;;;;;6287576;28;20369;-69
2022/08/23 16:45:34;;;;;;;4.78;2.28;;;20.70;99.90;;;;;;6286591;28;20302;-68